createdAt,value
2023-03-26T00:01:21.442Z,9.51
2023-03-26T00:03:54.074Z,9.46
2023-03-26T00:06:23.170Z,9.38
2023-03-26T00:08:50.808Z,9.31
2023-03-26T00:11:19.745Z,9.25
2023-03-26T00:13:47.758Z,9.13
2023-03-26T00:16:18.242Z,9.10
2023-03-26T00:18:46.123Z,9.11
2023-03-26T00:21:14.201Z,9.16
2023-03-26T00:23:41.678Z,9.16
2023-03-26T00:26:10.731Z,9.14
2023-03-26T00:28:40.433Z,9.16
2023-03-26T00:31:10.343Z,9.17
2023-03-26T00:33:40.838Z,9.21
2023-03-26T00:36:11.081Z,9.22
2023-03-26T00:38:39.158Z,9.16
2023-03-26T00:41:07.581Z,9.11
2023-03-26T00:43:35.971Z,9.12
2023-03-26T00:46:03.450Z,9.12
2023-03-26T00:48:43.922Z,9.09
2023-03-26T00:51:18.103Z,9.09
2023-03-26T00:53:47.094Z,8.98
2023-03-26T00:56:14.590Z,8.90
2023-03-26T00:58:41.977Z,8.92
2023-03-26T01:01:11.085Z,8.95
2023-03-26T01:03:38.707Z,9.01
2023-03-26T01:06:11.349Z,9.06
2023-03-26T01:08:42.125Z,9.06
2023-03-26T01:11:14.354Z,9.05
2023-03-26T01:13:44.905Z,9.05
2023-03-26T01:16:22.120Z,8.99
2023-03-26T01:18:50.011Z,8.96
2023-03-26T01:21:22.770Z,8.93
2023-03-26T01:23:57.877Z,8.88
2023-03-26T01:26:44.482Z,8.84
2023-03-26T01:29:20.801Z,8.88
2023-03-26T01:31:55.030Z,8.87
2023-03-26T01:34:30.568Z,8.86
2023-03-26T01:37:04.750Z,8.84
2023-03-26T01:39:39.002Z,8.85
2023-03-26T01:42:08.407Z,8.85
2023-03-26T01:44:39.862Z,8.81
2023-03-26T01:47:08.191Z,8.77
2023-03-26T01:49:35.211Z,8.75
2023-03-26T01:52:02.387Z,8.80
2023-03-26T01:54:34.121Z,8.85
2023-03-26T01:57:06.085Z,8.84
2023-03-26T01:59:43.552Z,8.87
2023-03-26T02:02:14.022Z,8.82
2023-03-26T02:04:48.470Z,8.82
2023-03-26T02:07:21.232Z,8.86
2023-03-26T02:09:52.729Z,8.85
2023-03-26T02:12:21.832Z,8.92
2023-03-26T02:14:49.378Z,8.99
2023-03-26T02:17:19.190Z,8.99
2023-03-26T02:19:48.118Z,8.97
2023-03-26T02:22:15.857Z,8.94
2023-03-26T02:24:45.090Z,8.82
2023-03-26T02:27:13.795Z,8.77
2023-03-26T02:29:40.644Z,8.77
2023-03-26T02:32:13.551Z,8.78
2023-03-26T02:34:41.002Z,8.66
2023-03-26T02:37:08.814Z,8.61
2023-03-26T02:39:36.692Z,8.62
2023-03-26T02:42:12.990Z,8.68
2023-03-26T02:44:46.667Z,8.72
2023-03-26T02:47:19.718Z,8.76
2023-03-26T02:49:52.722Z,8.74
2023-03-26T02:52:26.125Z,8.70
2023-03-26T02:54:56.322Z,8.73
2023-03-26T02:57:26.580Z,8.71
2023-03-26T03:00:10.112Z,8.73
2023-03-26T03:02:40.062Z,8.73
2023-03-26T03:05:26.579Z,8.69
2023-03-26T03:08:13.995Z,8.72
2023-03-26T03:10:57.736Z,8.75
2023-03-26T03:13:38.372Z,8.73
2023-03-26T03:16:07.045Z,8.72
2023-03-26T03:18:34.525Z,8.64
2023-03-26T03:21:03.040Z,8.62
2023-03-26T03:23:30.399Z,8.52
2023-03-26T03:26:12.990Z,8.50
2023-03-26T03:28:42.021Z,8.48
2023-03-26T03:31:09.251Z,8.41
2023-03-26T03:33:37.167Z,8.32
2023-03-26T03:36:10.528Z,8.25
2023-03-26T03:38:48.585Z,8.26
2023-03-26T03:41:19.398Z,8.19
2023-03-26T03:43:48.716Z,8.10
2023-03-26T03:46:20.951Z,8.13
2023-03-26T03:48:49.999Z,8.07
2023-03-26T03:51:21.970Z,8.11
2023-03-26T03:53:52.884Z,8.09
2023-03-26T03:56:32.461Z,7.98
2023-03-26T03:59:24.090Z,7.94
2023-03-26T04:01:51.263Z,7.92
2023-03-26T04:04:28.800Z,7.93
2023-03-26T04:07:00.889Z,7.91
2023-03-26T04:09:35.906Z,7.93
2023-03-26T04:12:10.540Z,7.90
2023-03-26T04:14:42.612Z,7.87
2023-03-26T04:17:15.746Z,7.82
2023-03-26T04:19:44.857Z,7.79
2023-03-26T04:22:14.059Z,7.77
2023-03-26T04:24:55.428Z,7.74
2023-03-26T04:27:37.682Z,7.74
2023-03-26T04:30:20.726Z,7.77
2023-03-26T04:33:10.690Z,7.75
2023-03-26T04:35:41.831Z,7.74
2023-03-26T04:38:11.568Z,7.76
2023-03-26T04:40:42.404Z,7.76
2023-03-26T04:43:42.284Z,7.74
2023-03-26T04:46:21.991Z,7.75
2023-03-26T04:48:55.153Z,7.76
2023-03-26T04:51:27.216Z,7.80
2023-03-26T04:53:58.398Z,7.81
2023-03-26T04:56:39.664Z,7.81
2023-03-26T04:59:08.128Z,7.84
2023-03-26T05:01:41.857Z,7.84
2023-03-26T05:04:11.675Z,7.89
2023-03-26T05:06:39.913Z,7.91
2023-03-26T05:09:15.766Z,7.96
2023-03-26T05:12:18.133Z,8.02
2023-03-26T05:15:00.048Z,8.06
2023-03-26T05:17:58.142Z,8.11
2023-03-26T05:20:31.293Z,8.20
2023-03-26T05:22:58.556Z,8.33
2023-03-26T05:25:31.109Z,8.35
2023-03-26T05:28:00.238Z,8.41
2023-03-26T05:30:34.170Z,8.52
2023-03-26T05:33:04.465Z,8.60
2023-03-26T05:35:40.746Z,8.68
2023-03-26T05:38:09.339Z,8.80
2023-03-26T05:40:36.691Z,8.80
2023-03-26T05:43:05.485Z,8.88
2023-03-26T05:45:35.730Z,8.96
2023-03-26T05:48:16.955Z,9.00
2023-03-26T05:50:43.923Z,9.10
2023-03-26T05:53:10.975Z,9.13
2023-03-26T05:56:04.349Z,9.13
2023-03-26T05:58:52.108Z,9.17
2023-03-26T06:01:38.624Z,9.27
2023-03-26T06:04:25.601Z,9.30
2023-03-26T06:07:19.875Z,9.36
2023-03-26T06:10:03.552Z,9.41
2023-03-26T06:12:30.599Z,9.45
2023-03-26T06:14:57.746Z,9.54
2023-03-26T06:17:38.800Z,9.58
2023-03-26T06:20:15.902Z,9.68
2023-03-26T06:22:46.118Z,9.67
2023-03-26T06:25:34.020Z,9.61
2023-03-26T06:28:08.025Z,9.68
2023-03-26T06:31:13.417Z,9.75
2023-03-26T06:33:49.180Z,9.85
2023-03-26T06:36:18.021Z,9.99
2023-03-26T06:38:48.533Z,10.11
2023-03-26T06:41:15.592Z,10.18
2023-03-26T06:44:01.378Z,10.24
2023-03-26T06:47:00.450Z,10.32
2023-03-26T06:49:46.219Z,10.47
2023-03-26T06:52:36.915Z,10.57
2023-03-26T06:55:24.802Z,10.72
2023-03-26T06:58:14.585Z,10.77
2023-03-26T07:00:44.124Z,10.77
2023-03-26T07:03:29.730Z,10.87
2023-03-26T07:06:15.048Z,10.96
2023-03-26T07:09:02.261Z,10.98
2023-03-26T07:11:29.445Z,11.01
2023-03-26T07:14:15.615Z,11.15
2023-03-26T07:16:42.560Z,11.32
2023-03-26T07:19:29.876Z,11.46
2023-03-26T07:21:57.397Z,11.51
2023-03-26T07:24:50.394Z,11.56
2023-03-26T07:27:48.790Z,11.70
2023-03-26T07:30:28.881Z,11.78
2023-03-26T07:33:19.543Z,11.92
2023-03-26T07:36:08.249Z,12.09
2023-03-26T07:39:00.493Z,12.23
2023-03-26T07:41:45.506Z,12.44
2023-03-26T07:44:47.540Z,12.64
2023-03-26T07:47:34.349Z,12.85
2023-03-26T07:50:18.801Z,12.75
2023-03-26T07:52:58.674Z,12.88
2023-03-26T07:55:51.125Z,13.08
2023-03-26T07:59:11.991Z,13.27
2023-03-26T08:02:08.846Z,13.46
2023-03-26T08:04:55.015Z,13.68
2023-03-26T08:07:51.677Z,13.88
2023-03-26T08:10:28.305Z,14.03
2023-03-26T08:13:14.088Z,14.09
2023-03-26T08:15:48.281Z,14.18
2023-03-26T08:18:27.727Z,14.37
2023-03-26T08:20:58.303Z,14.45
2023-03-26T08:23:29.182Z,14.64
2023-03-26T08:26:02.496Z,14.84
2023-03-26T08:28:38.637Z,14.87
2023-03-26T08:31:08.321Z,15.11
2023-03-26T08:33:38.302Z,15.31
2023-03-26T08:36:06.072Z,15.31
2023-03-26T08:38:33.113Z,15.49
2023-03-26T08:41:36.234Z,15.76
2023-03-26T08:44:40.782Z,15.87
2023-03-26T08:47:38.553Z,16.01
2023-03-26T08:50:28.752Z,16.08
2023-03-26T08:53:23.372Z,16.31
2023-03-26T08:55:54.102Z,16.34
2023-03-26T08:58:56.056Z,16.46
2023-03-26T09:02:07.556Z,16.56
2023-03-26T09:05:02.195Z,16.49
2023-03-26T09:08:11.413Z,16.66
2023-03-26T09:10:53.553Z,16.83
2023-03-26T09:13:44.190Z,17.12
2023-03-26T09:16:43.594Z,17.21
2023-03-26T09:19:39.149Z,17.39
2023-03-26T09:22:29.762Z,17.69
2023-03-26T09:25:14.478Z,17.87
2023-03-26T09:28:06.883Z,17.72
2023-03-26T09:30:47.101Z,17.94
2023-03-26T09:33:54.024Z,18.10
2023-03-26T09:36:30.409Z,18.21
2023-03-26T09:39:06.552Z,18.28
2023-03-26T09:41:39.712Z,18.60
2023-03-26T09:44:34.268Z,18.87
2023-03-26T09:47:30.431Z,18.88
2023-03-26T09:50:09.018Z,18.68
2023-03-26T09:52:55.348Z,19.00
2023-03-26T09:55:42.147Z,18.90
2023-03-26T09:58:27.326Z,18.85
2023-03-26T10:01:05.544Z,19.09
2023-03-26T10:03:41.007Z,19.20
2023-03-26T10:06:33.626Z,19.24
2023-03-26T10:09:15.125Z,19.39
2023-03-26T10:12:07.079Z,19.58
2023-03-26T10:14:37.543Z,19.56
2023-03-26T10:17:19.720Z,19.66
2023-03-26T10:19:57.035Z,19.66
2023-03-26T10:22:36.008Z,19.34
2023-03-26T10:25:33.288Z,19.34
2023-03-26T10:28:10.358Z,19.63
2023-03-26T10:30:53.692Z,19.84
2023-03-26T10:33:31.513Z,20.00
2023-03-26T10:36:15.629Z,19.80
2023-03-26T10:38:54.754Z,19.75
2023-03-26T10:41:28.158Z,19.83
2023-03-26T10:44:09.070Z,20.05
2023-03-26T10:47:03.425Z,20.13
2023-03-26T10:49:52.251Z,20.33
2023-03-26T10:52:22.189Z,20.29
2023-03-26T10:54:54.525Z,19.99
2023-03-26T10:57:38.196Z,20.05
2023-03-26T11:00:14.986Z,20.12
2023-03-26T11:02:47.092Z,20.33
2023-03-26T11:05:28.900Z,20.53
2023-03-26T11:08:00.331Z,20.39
2023-03-26T11:10:37.112Z,20.41
2023-03-26T11:13:14.685Z,20.35
2023-03-26T11:15:45.341Z,20.22
2023-03-26T11:18:17.769Z,20.07
2023-03-26T11:20:47.727Z,19.74
2023-03-26T11:23:31.635Z,19.64
2023-03-26T11:26:08.792Z,19.83
2023-03-26T11:29:04.142Z,20.07
2023-03-26T11:31:47.815Z,20.30
2023-03-26T11:34:17.405Z,20.46
2023-03-26T11:36:47.645Z,20.65
2023-03-26T11:39:20.340Z,20.74
2023-03-26T11:41:47.811Z,20.89
2023-03-26T11:44:26.145Z,20.98
2023-03-26T11:47:01.459Z,21.14
2023-03-26T11:49:47.078Z,21.45
2023-03-26T11:52:15.904Z,21.63
2023-03-26T11:54:43.453Z,21.70
2023-03-26T11:57:13.666Z,21.79
2023-03-26T11:59:55.766Z,21.83
2023-03-26T12:02:29.329Z,21.82
2023-03-26T12:05:12.262Z,21.85
2023-03-26T12:07:45.874Z,22.14
2023-03-26T12:10:26.658Z,22.37
2023-03-26T12:12:56.086Z,22.30
2023-03-26T12:15:23.263Z,22.19
2023-03-26T12:17:55.992Z,22.02
2023-03-26T12:20:32.951Z,22.11
2023-03-26T12:23:00.822Z,22.16
2023-03-26T12:25:33.444Z,22.02
2023-03-26T12:28:03.081Z,22.03
2023-03-26T12:30:31.308Z,22.00
2023-03-26T12:33:03.957Z,22.17
2023-03-26T12:35:33.584Z,22.09
2023-03-26T12:38:24.353Z,22.10
2023-03-26T12:41:05.297Z,22.09
2023-03-26T12:44:49.558Z,22.04
2023-03-26T12:47:54.392Z,22.20
2023-03-26T12:49:18.774Z,22.27
2023-03-26T12:51:49.090Z,22.21
2023-03-26T12:54:33.322Z,22.30
2023-03-26T12:57:19.850Z,22.24
2023-03-26T13:00:21.291Z,22.19
2023-03-26T13:03:06.947Z,22.27
2023-03-26T13:05:45.312Z,22.33
2023-03-26T13:08:41.653Z,22.34
2023-03-26T13:11:11.642Z,22.33
2023-03-26T13:13:52.745Z,22.51
2023-03-26T13:16:25.230Z,22.33
2023-03-26T13:18:54.591Z,21.97
2023-03-26T13:21:30.394Z,21.83
2023-03-26T13:24:03.026Z,21.86
2023-03-26T13:26:41.150Z,21.93
2023-03-26T13:29:17.570Z,21.80
2023-03-26T13:31:49.505Z,22.03
2023-03-26T13:34:22.661Z,22.04
2023-03-26T13:36:59.886Z,21.95
2023-03-26T13:39:33.315Z,21.70
2023-03-26T13:42:10.350Z,21.81
2023-03-26T13:44:45.367Z,21.67
2023-03-26T13:47:16.908Z,21.82
2023-03-26T13:49:46.916Z,22.13
2023-03-26T13:52:20.717Z,22.10
2023-03-26T13:54:50.267Z,22.08
2023-03-26T13:57:21.570Z,22.04
2023-03-26T13:59:51.199Z,22.10
2023-03-26T14:02:24.318Z,22.29
2023-03-26T14:04:55.789Z,22.11
2023-03-26T14:07:27.651Z,22.18
2023-03-26T14:09:57.268Z,22.17
2023-03-26T14:12:33.172Z,22.38
2023-03-26T14:15:02.818Z,22.32
2023-03-26T14:17:34.732Z,22.28
2023-03-26T14:20:41.720Z,22.71
2023-03-26T14:23:24.784Z,22.55
2023-03-26T14:26:02.826Z,22.68
2023-03-26T14:28:54.901Z,22.82
2023-03-26T14:31:24.233Z,23.15
2023-03-26T14:34:02.392Z,23.17
2023-03-26T14:36:48.004Z,23.08
2023-03-26T14:39:43.426Z,23.22
2023-03-26T14:42:19.196Z,23.47
2023-03-26T14:45:11.060Z,23.49
2023-03-26T14:47:43.387Z,23.32
2023-03-26T14:50:37.610Z,23.25
2023-03-26T14:53:13.913Z,22.99
2023-03-26T14:56:04.259Z,23.04
2023-03-26T14:59:07.394Z,23.10
2023-03-26T15:02:15.783Z,23.03
2023-03-26T15:04:52.035Z,22.91
2023-03-26T15:07:30.359Z,22.79
2023-03-26T15:10:17.913Z,22.61
2023-03-26T15:13:01.137Z,22.51
2023-03-26T15:16:01.013Z,22.48
2023-03-26T15:19:08.785Z,22.31
2023-03-26T15:22:12.683Z,22.06
2023-03-26T15:25:12.009Z,21.91
2023-03-26T15:28:11.617Z,21.70
2023-03-26T15:31:09.892Z,21.51
2023-03-26T15:34:20.168Z,21.60
2023-03-26T15:37:22.417Z,21.51
2023-03-26T15:40:17.126Z,21.43
2023-03-26T15:42:49.304Z,21.43
2023-03-26T15:45:22.538Z,21.46
2023-03-26T15:47:57.450Z,21.37
2023-03-26T15:50:55.905Z,21.17
2023-03-26T15:53:36.549Z,20.80
2023-03-26T15:56:11.650Z,20.46
2023-03-26T15:58:46.600Z,20.13
2023-03-26T16:01:21.231Z,19.95
2023-03-26T16:03:56.534Z,19.67
2023-03-26T16:06:31.142Z,19.35
2023-03-26T16:09:08.630Z,19.11
2023-03-26T16:11:49.534Z,18.84
2023-03-26T16:14:18.663Z,18.62
2023-03-26T16:16:59.299Z,18.19
2023-03-26T16:19:36.283Z,17.68
2023-03-26T16:22:06.156Z,17.41
2023-03-26T16:24:34.747Z,17.20
2023-03-26T16:27:10.710Z,16.94
2023-03-26T16:30:10.933Z,16.57
2023-03-26T16:32:41.219Z,16.25
2023-03-26T16:35:35.919Z,15.85
2023-03-26T16:38:09.745Z,15.43
2023-03-26T16:40:57.542Z,15.31
2023-03-26T16:43:51.724Z,15.04
2023-03-26T16:46:35.332Z,14.74
2023-03-26T16:49:10.693Z,14.32
2023-03-26T16:51:53.604Z,14.07
2023-03-26T16:54:25.477Z,13.96
2023-03-26T16:56:59.563Z,13.51
2023-03-26T16:59:40.023Z,13.25
2023-03-26T17:02:16.388Z,12.95
2023-03-26T17:04:46.647Z,12.59
2023-03-26T17:07:17.376Z,12.44
2023-03-26T17:09:54.170Z,12.31
2023-03-26T17:12:29.085Z,12.36
2023-03-26T17:15:17.440Z,12.46
2023-03-26T17:17:53.171Z,12.44
2023-03-26T17:20:33.497Z,12.20
2023-03-26T17:23:11.562Z,12.03
2023-03-26T17:25:45.160Z,12.06
2023-03-26T17:28:32.423Z,12.15
2023-03-26T17:31:05.057Z,11.98
2023-03-26T17:33:34.782Z,11.82
2023-03-26T17:36:30.858Z,11.69
2023-03-26T17:39:19.585Z,11.56
2023-03-26T17:42:13.403Z,11.45
2023-03-26T17:44:44.060Z,11.40
2023-03-26T17:47:18.739Z,11.33
2023-03-26T17:49:47.865Z,11.36
2023-03-26T17:52:18.447Z,11.30
2023-03-26T17:54:48.103Z,11.32
2023-03-26T17:57:19.087Z,11.27
2023-03-26T17:59:47.032Z,11.32
2023-03-26T18:02:16.236Z,11.36
2023-03-26T18:04:45.707Z,11.41
2023-03-26T18:07:33.297Z,11.42
2023-03-26T18:10:17.283Z,11.39
2023-03-26T18:13:23.379Z,11.22
2023-03-26T18:15:57.854Z,11.17
2023-03-26T18:18:29.550Z,11.08
2023-03-26T18:21:00.357Z,10.99
2023-03-26T18:23:36.045Z,10.89
2023-03-26T18:26:12.561Z,10.77
2023-03-26T18:28:42.300Z,10.69
2023-03-26T18:31:14.175Z,10.63
2023-03-26T18:33:42.982Z,10.61
2023-03-26T18:36:11.554Z,10.53
2023-03-26T18:38:40.561Z,10.57
2023-03-26T18:41:17.220Z,10.61
2023-03-26T18:43:44.842Z,10.64
2023-03-26T18:46:12.750Z,10.62
2023-03-26T18:48:40.211Z,10.61
2023-03-26T18:51:07.502Z,10.43
2023-03-26T18:53:37.882Z,10.31
2023-03-26T18:56:20.594Z,10.21
2023-03-26T18:58:51.022Z,10.22
2023-03-26T19:01:25.370Z,10.11
2023-03-26T19:03:53.880Z,10.07
2023-03-26T19:06:21.033Z,10.06
2023-03-26T19:08:48.283Z,9.95
2023-03-26T19:11:17.116Z,9.82
2023-03-26T19:13:50.702Z,9.62
2023-03-26T19:16:22.261Z,9.52
2023-03-26T19:18:49.717Z,9.42
2023-03-26T19:21:18.128Z,9.40
2023-03-26T19:23:46.857Z,9.44
2023-03-26T19:26:14.247Z,9.45
2023-03-26T19:28:49.083Z,9.41
2023-03-26T19:31:24.040Z,9.33
2023-03-26T19:33:54.580Z,9.31
2023-03-26T19:36:24.350Z,9.32
2023-03-26T19:38:52.697Z,9.28
2023-03-26T19:41:22.790Z,9.27
2023-03-26T19:43:50.738Z,9.27
2023-03-26T19:46:18.354Z,9.29
2023-03-26T19:48:51.902Z,9.13
2023-03-26T19:51:21.038Z,9.09
2023-03-26T19:53:50.379Z,9.09
2023-03-26T19:56:19.582Z,9.18
2023-03-26T19:58:46.703Z,9.22
2023-03-26T20:01:17.656Z,9.17
2023-03-26T20:03:48.613Z,9.13
2023-03-26T20:06:17.718Z,9.17
2023-03-26T20:08:44.866Z,9.12
2023-03-26T20:11:15.624Z,9.03
2023-03-26T20:13:42.781Z,9.00
2023-03-26T20:16:14.138Z,8.96
2023-03-26T20:18:41.541Z,8.95
2023-03-26T20:21:12.846Z,8.93
2023-03-26T20:23:40.244Z,8.83
2023-03-26T20:26:12.159Z,8.70
2023-03-26T20:28:47.558Z,8.69
2023-03-26T20:31:17.582Z,8.70
2023-03-26T20:33:44.661Z,8.60
2023-03-26T20:36:13.844Z,8.56
2023-03-26T20:39:00.891Z,8.57
2023-03-26T20:41:27.946Z,8.60
2023-03-26T20:43:54.910Z,8.50
2023-03-26T20:46:23.606Z,8.39
2023-03-26T20:48:58.944Z,8.38
2023-03-26T20:51:28.810Z,8.37
2023-03-26T20:53:56.426Z,8.32
2023-03-26T20:56:23.638Z,8.18
2023-03-26T20:59:03.476Z,8.18
2023-03-26T21:01:35.173Z,8.27
2023-03-26T21:04:04.389Z,8.38
2023-03-26T21:06:32.838Z,8.43
2023-03-26T21:09:00.408Z,8.45
2023-03-26T21:11:36.682Z,8.77
2023-03-26T21:14:08.033Z,8.80
2023-03-26T21:16:35.782Z,8.55
2023-03-26T21:19:03.418Z,8.51
2023-03-26T21:21:46.498Z,8.56
2023-03-26T21:24:19.339Z,8.51
2023-03-26T21:26:50.559Z,8.38
2023-03-26T21:29:18.043Z,8.33
2023-03-26T21:31:46.770Z,8.15
2023-03-26T21:34:14.203Z,8.05
2023-03-26T21:36:43.158Z,8.02
2023-03-26T21:39:11.127Z,8.07
2023-03-26T21:41:43.931Z,8.10
2023-03-26T21:44:11.108Z,8.13
2023-03-26T21:46:41.693Z,8.22
2023-03-26T21:49:09.171Z,8.00
2023-03-26T21:51:36.572Z,7.97
2023-03-26T21:54:06.126Z,7.98
2023-03-26T21:56:41.370Z,7.81
2023-03-26T21:59:12.212Z,7.72
2023-03-26T22:01:42.192Z,7.73
2023-03-26T22:04:13.238Z,7.69
2023-03-26T22:06:44.383Z,7.65
2023-03-26T22:09:15.145Z,7.67
2023-03-26T22:11:43.900Z,7.57
2023-03-26T22:14:13.373Z,7.55
2023-03-26T22:16:41.397Z,7.58
2023-03-26T22:19:08.762Z,7.52
2023-03-26T22:21:36.895Z,7.49
2023-03-26T22:24:04.258Z,7.49
2023-03-26T22:26:32.978Z,7.50
2023-03-26T22:28:59.977Z,7.45
2023-03-26T22:31:27.200Z,7.27
2023-03-26T22:33:55.047Z,7.24
2023-03-26T22:36:23.744Z,7.19
2023-03-26T22:38:53.233Z,7.26
2023-03-26T22:41:20.668Z,7.32
2023-03-26T22:43:52.127Z,7.38
2023-03-26T22:46:19.525Z,7.33
2023-03-26T22:48:48.546Z,7.32
2023-03-26T22:51:15.550Z,7.33
2023-03-26T22:53:43.537Z,7.29
2023-03-26T22:56:11.314Z,7.16
2023-03-26T22:58:38.341Z,7.23
2023-03-26T23:01:09.789Z,7.25
2023-03-26T23:03:37.234Z,7.18
2023-03-26T23:06:06.921Z,7.23
2023-03-26T23:08:34.460Z,7.19
2023-03-26T23:11:02.107Z,7.20
2023-03-26T23:13:29.028Z,7.11
2023-03-26T23:15:57.265Z,7.08
2023-03-26T23:18:25.916Z,7.10
2023-03-26T23:20:58.152Z,7.04
2023-03-26T23:23:29.408Z,7.03
2023-03-26T23:25:58.711Z,7.00
2023-03-26T23:28:26.031Z,7.04
2023-03-26T23:30:54.755Z,7.10
2023-03-26T23:33:23.514Z,7.04
2023-03-26T23:35:53.325Z,7.01
2023-03-26T23:38:22.312Z,7.08
2023-03-26T23:40:57.465Z,7.16
2023-03-26T23:43:25.553Z,7.22
2023-03-26T23:45:53.233Z,7.20
2023-03-26T23:48:25.412Z,7.20
2023-03-26T23:51:02.841Z,7.16
2023-03-26T23:53:32.021Z,7.25
2023-03-26T23:55:59.221Z,7.33
2023-03-26T23:58:30.113Z,7.39
